Home   Weather   Norfolk Island   Kingston   Past weeks
Flag for Norfolk Island

Past Weather in Kingston, Norfolk Island — Yesterday and Last 2 Weeks

Currently: 72 °F. Passing clouds. (Weather station: Norfolk Island Airport, Norfolk Island). See more current weather

Past Weather in Kingston — Graph

°F

Kingston Temperature Yesterday

Maximum temperature yesterday: 81 °F (at 11:30 am)
Minimum temperature yesterday: 72 °F (at 3:00 am)
Average temperature yesterday: 75 °F

High & Low Weather Summary for the Past Weeks

 TemperatureHumidityPressure
High82 °F (Feb 21, 1:12 pm)100% (Feb 10, 7:16 am)30.15 "Hg (Feb 10, 7:16 am)
Low68 °F (Feb 16, 7:14 am)54% (Feb 14, 3:00 pm)29.86 "Hg (Feb 10, 5:00 am)
Average74 °F81%30.04 "Hg
* Reported Feb 8 4:00 am — Feb 23 4:30 am, Kingston. Weather by CustomWeather, © 2024

Note: Actual official high and low records may vary slightly from our data, if they occured in-between our weather recording intervals... More about our weather records

Kingston Weather History for the Previous 24 Hours

Scroll right to see more
 ConditionsComfort  
Time TempWeatherWind HumidityBarometerVisibility
4:30 am
Fri, Feb 23
72 °FPassing clouds.15 mph94%30.07 "HgN/A
4:19 am72 °FPartly cloudy.16 mph94%30.07 "HgN/A
4:00 am73 °FPartly cloudy.17 mph89%30.07 "HgN/A
3:30 am73 °FPartly cloudy.10 mph89%30.07 "HgN/A
3:16 am73 °FPassing clouds.10 mph89%30.09 "HgN/A
2:30 am72 °FOvercast.12 mph94%30.09 "HgN/A
2:15 am73 °FPartly cloudy.13 mph89%30.09 "HgN/A
2:00 am73 °FMostly cloudy.14 mph89%30.09 "HgN/A
1:30 am73 °FOvercast.12 mph89%30.09 "HgN/A
1:00 am73 °FMostly cloudy.13 mph89%30.12 "HgN/A
12:30 am73 °FMostly cloudy.14 mph89%30.12 "HgN/A
12:20 am73 °FMostly cloudy.14 mph83%30.12 "HgN/A
12:00 am72 °FPartly cloudy.10 mph88%30.12 "HgN/A
11:30 pm
Thu, Feb 22
73 °FPassing clouds.14 mph83%30.12 "HgN/A
11:00 pm72 °FPassing clouds.15 mph88%30.12 "HgN/A
10:30 pm72 °FPassing clouds.17 mph88%30.12 "HgN/A
10:00 pm73 °FPartly cloudy.18 mph89%30.12 "HgN/A
9:38 pm73 °FPassing clouds.14 mph83%30.12 "HgN/A
9:05 pm73 °FPassing clouds.15 mph89%30.12 "HgN/A
8:30 pm73 °FMostly cloudy.15 mph89%30.12 "HgN/A
8:00 pm73 °FPassing clouds.13 mph89%30.12 "HgN/A
7:30 pm73 °FClear.16 mph83%30.09 "HgN/A
7:00 pm73 °FScattered clouds.16 mph89%30.09 "HgN/A
6:30 pm75 °FScattered clouds.15 mph83%30.09 "HgN/A
6:00 pm75 °FBroken clouds.14 mph83%30.09 "HgN/A
5:30 pm75 °FLight rain. Mostly cloudy.15 mph78%30.09 "HgN/A
5:00 pm79 °FCloudy.17 mph70%30.09 "HgN/A
4:30 pm79 °FPartly sunny.17 mph70%30.09 "HgN/A
4:22 pm79 °FScattered clouds.18 mph70%30.09 "HgN/A
4:00 pm79 °FScattered clouds.18 mph65%30.09 "HgN/A
3:33 pm81 °FBroken clouds.17 mph66%30.09 "HgN/A
3:00 pm81 °FScattered clouds.20 mph66%30.12 "HgN/A
2:30 pm81 °FScattered clouds.20 mph66%30.12 "HgN/A
2:00 pm81 °FScattered clouds.20 mph66%30.12 "HgN/A
1:30 pm79 °FScattered clouds.17 mph70%30.12 "HgN/A
1:00 pm81 °FPartly sunny.21 mph66%30.15 "HgN/A
11:30 am81 °FBroken clouds.20 mph66%30.15 "HgN/A
11:00 am79 °FBroken clouds.20 mph70%30.15 "HgN/A
10:30 am79 °FPartly sunny.20 mph65%30.15 "HgN/A
10:00 am79 °FPartly sunny.20 mph70%30.15 "HgN/A
9:30 am77 °FPartly sunny.21 mph69%30.15 "HgN/A
9:00 am77 °FScattered clouds.17 mph74%30.15 "HgN/A
8:30 am77 °FScattered clouds.15 mph74%30.15 "HgN/A
8:00 am75 °FPartly sunny.16 mph74%30.15 "HgN/A
7:30 am73 °FPartly sunny.16 mph83%30.12 "HgN/A
7:00 am73 °FMostly cloudy.16 mph83%30.12 "HgN/A
6:30 am72 °FPartly cloudy.14 mph88%30.12 "HgN/A
6:00 am73 °FPartly cloudy.14 mph83%30.12 "HgN/A
Weather by CustomWeather, © 2024

See weather overview